Time;durP1;ratioP1;P1;durP2;ratioP2;P2;SDS_P1;SDS_P2;PMS_P1;PMS_P2;Temp;Humidity;BMP_temperature;BMP_pressure;BME280_temperature;BME280_humidity;BME280_pressure;Samples;Min_cycle;Max_cycle;Signal;HPM_P1;HPM_P2
2023/06/02 00:01:34;;;;;;;6.83;4.00;;;18.90;93.10;;;;;;5095876;28;20188;-72
2023/06/02 00:04:01;;;;;;;4.73;4.20;;;18.80;93.00;;;;;;5096135;28;20789;-73
2023/06/02 00:06:30;;;;;;;5.87;4.47;;;18.80;93.40;;;;;;5095226;28;20193;-72
2023/06/02 00:08:57;;;;;;;4.60;4.20;;;18.60;93.00;;;;;;5095942;28;20403;-73
2023/06/02 00:11:23;;;;;;;5.40;3.97;;;18.60;93.50;;;;;;5096150;28;20749;-74
2023/06/02 00:13:49;;;;;;;5.80;4.30;;;18.60;93.20;;;;;;5095706;28;20407;-73
2023/06/02 00:16:15;;;;;;;4.70;4.30;;;18.50;93.50;;;;;;5095807;28;20262;-73
2023/06/02 00:18:43;;;;;;;5.10;4.57;;;18.40;93.30;;;;;;5095963;28;20854;-72
2023/06/02 00:21:09;;;;;;;6.57;4.43;;;18.40;93.90;;;;;;5095085;28;20185;-73
2023/06/02 00:23:35;;;;;;;5.77;4.70;;;18.50;93.50;;;;;;5095688;28;20407;-72
2023/06/02 00:26:01;;;;;;;4.70;4.13;;;18.30;93.10;;;;;;5096213;28;20833;-73
2023/06/02 00:28:28;;;;;;;5.20;3.70;;;18.40;93.40;;;;;;5095745;28;20464;-73
2023/06/02 00:30:53;;;;;;;4.80;3.93;;;18.30;93.40;;;;;;5095718;28;20395;-73
2023/06/02 00:33:19;;;;;;;6.13;4.57;;;18.40;93.30;;;;;;5095507;28;20410;-73
2023/06/02 00:35:45;;;;;;;6.07;4.30;;;18.40;93.40;;;;;;5095591;28;20224;-72
2023/06/02 00:38:10;;;;;;;4.73;4.10;;;18.30;93.10;;;;;;5095057;28;20174;-74
2023/06/02 00:40:36;;;;;;;5.10;4.60;;;18.20;93.30;;;;;;5095839;28;20652;-73
2023/06/02 00:43:02;;;;;;;5.10;4.03;;;18.20;93.70;;;;;;5095420;28;20318;-73
2023/06/02 00:45:28;;;;;;;5.40;4.50;;;18.10;93.50;;;;;;5095228;28;20226;-73
2023/06/02 00:47:55;;;;;;;6.80;4.20;;;18.10;93.60;;;;;;5095288;28;20419;-73
2023/06/02 00:50:21;;;;;;;5.50;3.97;;;17.90;93.50;;;;;;5095137;28;20255;-74
2023/06/02 00:52:51;;;;;;;5.17;3.80;;;17.70;93.80;;;;;;5094525;28;20499;-73
2023/06/02 00:55:17;;;;;;;5.83;4.30;;;17.70;94.40;;;;;;5107511;28;20405;-72
2023/06/02 00:57:42;;;;;;;6.63;4.13;;;17.70;94.40;;;;;;5115318;28;20422;-72
2023/06/02 01:00:09;;;;;;;8.43;5.20;;;17.60;94.10;;;;;;5115000;28;20213;-73
2023/06/02 01:02:35;;;;;;;5.47;4.90;;;17.50;94.40;;;;;;5115118;28;20210;-73
2023/06/02 01:05:06;;;;;;;4.87;4.30;;;17.50;94.50;;;;;;5115344;28;20398;-73
2023/06/02 01:07:33;;;;;;;5.20;4.70;;;17.50;94.80;;;;;;5102109;28;20430;-73
2023/06/02 01:10:01;;;;;;;4.80;4.07;;;17.40;95.00;;;;;;5094627;28;20403;-72
2023/06/02 01:12:27;;;;;;;5.93;4.17;;;17.40;95.00;;;;;;5094663;28;20430;-73
2023/06/02 01:14:52;;;;;;;6.33;5.20;;;17.50;94.80;;;;;;5112415;28;20437;-72
2023/06/02 01:17:19;;;;;;;5.40;4.57;;;17.40;94.50;;;;;;5112803;28;20313;-74
2023/06/02 01:19:47;;;;;;;5.23;4.73;;;17.50;94.70;;;;;;5076453;28;20169;-72
2023/06/02 01:22:15;;;;;;;7.10;6.03;;;17.40;94.40;;;;;;5094234;28;20610;-73
2023/06/02 01:24:41;;;;;;;5.17;4.43;;;17.30;94.40;;;;;;5094856;28;20435;-73
2023/06/02 01:27:08;;;;;;;6.23;4.87;;;17.30;95.00;;;;;;5094237;28;20490;-73
2023/06/02 01:29:36;;;;;;;7.00;4.93;;;17.40;95.30;;;;;;5094239;28;20554;-72
2023/06/02 01:32:20;;;;;;;8.43;4.63;;;17.50;94.70;;;;;;5094151;28;20921;-72
2023/06/02 01:35:08;;;;;;;7.47;5.07;;;17.60;94.60;;;;;;5094197;28;20419;-73
2023/06/02 01:37:35;;;;;;;5.20;4.70;;;17.50;94.20;;;;;;5093967;28;20789;-72
2023/06/02 01:40:03;;;;;;;6.17;5.50;;;17.40;94.50;;;;;;5076401;28;20462;-72
2023/06/02 01:42:30;;;;;;;7.10;5.33;;;17.40;94.20;;;;;;5094652;28;20510;-72
2023/06/02 01:44:56;;;;;;;5.90;5.30;;;17.40;94.40;;;;;;5094105;28;20980;-72
2023/06/02 01:47:22;;;;;;;6.77;4.77;;;17.40;93.90;;;;;;5093815;28;20956;-72
2023/06/02 01:49:48;;;;;;;7.03;3.90;;;17.50;94.30;;;;;;5094138;28;20805;-72
2023/06/02 01:52:13;;;;;;;6.10;4.73;;;17.40;94.50;;;;;;5093444;28;20487;-72
2023/06/02 01:54:39;;;;;;;5.70;4.87;;;17.40;94.40;;;;;;5093916;28;20198;-72
2023/06/02 01:57:06;;;;;;;5.90;4.47;;;17.40;94.30;;;;;;5093697;28;20372;-72
2023/06/02 01:59:32;;;;;;;5.73;5.10;;;17.40;94.40;;;;;;5093631;28;20343;-72
2023/06/02 02:01:58;;;;;;;6.80;4.90;;;17.40;94.80;;;;;;5093451;28;20526;-73
2023/06/02 02:04:23;;;;;;;8.83;6.00;;;17.40;94.60;;;;;;5093041;28;20161;-72
2023/06/02 02:06:52;;;;;;;5.33;4.83;;;17.30;94.50;;;;;;5092858;28;20190;-71
2023/06/02 02:09:18;;;;;;;5.00;4.47;;;17.30;94.80;;;;;;5093379;28;20636;-72
2023/06/02 02:11:43;;;;;;;6.27;5.20;;;17.30;94.70;;;;;;5093526;28;20475;-72
2023/06/02 02:14:09;;;;;;;5.93;5.37;;;17.10;94.90;;;;;;5093571;28;20181;-72
2023/06/02 02:16:35;;;;;;;5.37;4.87;;;17.10;95.00;;;;;;5093068;28;20713;-72
2023/06/02 02:19:01;;;;;;;5.97;5.37;;;17.20;95.30;;;;;;5093143;28;20169;-72
2023/06/02 02:21:27;;;;;;;6.00;5.40;;;17.00;95.20;;;;;;5092821;28;20435;-73
2023/06/02 02:23:53;;;;;;;6.40;4.90;;;17.00;95.80;;;;;;5093044;28;20411;-72
2023/06/02 02:26:19;;;;;;;7.53;4.87;;;17.00;96.20;;;;;;5093137;28;20536;-72
2023/06/02 02:28:48;;;;;;;8.30;5.10;;;17.00;96.60;;;;;;5093252;28;20395;-73
2023/06/02 02:31:14;;;;;;;4.70;4.10;;;17.00;96.10;;;;;;5093079;28;20168;-72
2023/06/02 02:33:40;;;;;;;10.67;4.80;;;17.10;96.30;;;;;;5093084;28;20407;-72
2023/06/02 02:36:06;;;;;;;5.60;5.00;;;17.10;96.20;;;;;;5093064;28;20452;-72
2023/06/02 02:38:31;;;;;;;6.43;5.50;;;17.00;95.70;;;;;;5092429;28;20250;-73
2023/06/02 02:40:57;;;;;;;6.10;5.13;;;17.20;96.10;;;;;;5093069;28;20580;-72
2023/06/02 02:43:23;;;;;;;7.73;6.10;;;17.40;95.70;;;;;;5093063;28;20168;-72
2023/06/02 02:45:48;;;;;;;5.63;5.10;;;17.50;95.00;;;;;;5092681;28;20263;-72
2023/06/02 02:48:14;;;;;;;6.27;5.67;;;17.50;95.00;;;;;;5107871;28;20175;-71
2023/06/02 02:50:39;;;;;;;6.40;5.70;;;17.50;95.20;;;;;;5113288;28;20204;-72
2023/06/02 02:53:05;;;;;;;6.33;5.70;;;17.50;95.30;;;;;;5112732;28;20175;-72
2023/06/02 02:55:32;;;;;;;5.87;5.27;;;17.50;95.20;;;;;;5094774;28;20172;-73
2023/06/02 02:57:59;;;;;;;7.03;5.70;;;17.40;94.90;;;;;;5112796;28;20181;-72
2023/06/02 03:00:25;;;;;;;7.80;5.57;;;17.30;95.30;;;;;;5112883;28;20859;-72
2023/06/02 03:02:51;;;;;;;8.60;5.80;;;17.40;95.00;;;;;;5112829;28;20403;-72
2023/06/02 03:05:17;;;;;;;7.07;6.37;;;17.50;95.20;;;;;;5113209;28;20409;-73
2023/06/02 03:07:44;;;;;;;7.43;5.50;;;17.40;95.10;;;;;;5080139;28;20228;-73
2023/06/02 03:10:10;;;;;;;6.03;5.43;;;17.40;95.30;;;;;;5092540;28;20168;-73
2023/06/02 03:12:36;;;;;;;7.57;5.90;;;17.30;95.50;;;;;;5092620;28;20766;-73
2023/06/02 03:15:02;;;;;;;7.10;6.40;;;17.20;95.80;;;;;;5073294;28;20501;-72
2023/06/02 03:17:27;;;;;;;7.50;5.77;;;17.20;96.20;;;;;;5105403;28;20283;-72
2023/06/02 03:19:55;;;;;;;6.73;6.07;;;17.10;96.40;;;;;;5112846;28;20768;-72
2023/06/02 03:22:20;;;;;;;7.13;6.40;;;17.20;96.40;;;;;;5112193;28;20284;-73
2023/06/02 03:24:46;;;;;;;9.40;6.40;;;17.10;96.60;;;;;;5112873;28;20880;-72
2023/06/02 03:27:13;;;;;;;7.07;6.37;;;16.80;97.30;;;;;;5112618;28;20575;-72
2023/06/02 03:29:42;;;;;;;9.40;6.57;;;16.80;97.70;;;;;;5112833;28;20164;-72
2023/06/02 03:32:10;;;;;;;8.90;6.73;;;16.70;98.10;;;;;;5112801;28;20813;-71
2023/06/02 03:34:36;;;;;;;5.93;5.33;;;16.60;98.60;;;;;;5112871;28;20900;-73
2023/06/02 03:37:02;;;;;;;7.23;6.53;;;16.60;99.00;;;;;;5103652;28;20435;-73
2023/06/02 03:39:28;;;;;;;9.23;6.73;;;16.80;99.00;;;;;;5092496;28;20768;-72
2023/06/02 03:41:53;;;;;;;7.23;5.97;;;17.00;98.60;;;;;;5092190;28;20231;-73
2023/06/02 03:44:20;;;;;;;6.27;5.67;;;16.80;99.00;;;;;;5091009;28;20177;-72
2023/06/02 03:46:45;;;;;;;9.00;6.60;;;16.90;99.30;;;;;;5092206;28;20604;-73
2023/06/02 03:49:12;;;;;;;6.53;5.93;;;16.80;99.70;;;;;;5092397;28;20405;-71
2023/06/02 03:51:37;;;;;;;8.27;6.73;;;16.70;99.60;;;;;;5092113;28;20179;-73
2023/06/02 03:54:03;;;;;;;7.70;6.43;;;16.50;99.90;;;;;;5073875;28;20501;-72
2023/06/02 03:56:28;;;;;;;8.23;6.97;;;16.50;99.90;;;;;;5091910;28;20193;-74
2023/06/02 03:58:54;;;;;;;7.70;7.00;;;16.40;99.90;;;;;;5091445;28;20174;-72
2023/06/02 04:01:21;;;;;;;8.70;7.23;;;16.30;99.90;;;;;;5092007;28;20212;-72
2023/06/02 04:03:46;;;;;;;7.70;6.70;;;16.30;99.90;;;;;;5074732;28;20172;-72
2023/06/02 04:06:12;;;;;;;8.23;7.17;;;16.10;99.90;;;;;;5092278;28;20423;-73
2023/06/02 04:08:39;;;;;;;9.50;6.80;;;16.00;99.90;;;;;;5073566;28;20169;-72
2023/06/02 04:11:04;;;;;;;9.60;7.30;;;16.00;99.90;;;;;;5091837;28;20951;-72
2023/06/02 04:13:30;;;;;;;8.50;7.13;;;16.00;99.90;;;;;;5091378;28;20408;-70
2023/06/02 04:15:56;;;;;;;12.23;6.80;;;15.90;99.90;;;;;;5091554;28;20611;-72
2023/06/02 04:18:21;;;;;;;7.77;6.60;;;16.00;99.90;;;;;;5092271;28;20157;-68
2023/06/02 04:20:47;;;;;;;7.37;6.67;;;16.10;99.90;;;;;;5091822;28;20184;-68
2023/06/02 04:23:12;;;;;;;9.03;7.20;;;16.00;99.90;;;;;;5092123;28;20535;-68
2023/06/02 04:25:38;;;;;;;8.27;7.47;;;16.00;99.90;;;;;;5092321;28;20162;-68
2023/06/02 04:28:05;;;;;;;10.33;7.60;;;16.00;99.90;;;;;;5095206;28;20172;-67
2023/06/02 04:30:31;;;;;;;9.03;8.10;;;16.20;99.90;;;;;;5095826;28;20169;-67
2023/06/02 04:32:56;;;;;;;12.60;8.10;;;16.00;99.90;;;;;;5095727;28;20407;-68
2023/06/02 04:35:22;;;;;;;9.87;8.13;;;16.00;99.90;;;;;;5095271;28;20583;-68
2023/06/02 04:37:48;;;;;;;10.20;8.47;;;16.10;99.90;;;;;;5095282;28;20195;-68
2023/06/02 04:40:14;;;;;;;8.67;7.63;;;16.10;99.90;;;;;;5095416;28;20544;-69
2023/06/02 04:42:39;;;;;;;9.87;7.10;;;16.20;99.90;;;;;;5095179;28;20396;-68
2023/06/02 04:45:11;;;;;;;7.67;6.90;;;16.20;99.90;;;;;;5106118;28;20416;-68
2023/06/02 04:47:38;;;;;;;9.10;8.20;;;16.20;99.90;;;;;;5115504;28;20194;-68
2023/06/02 04:50:04;;;;;;;9.67;8.67;;;16.20;99.90;;;;;;5115601;28;20972;-68
2023/06/02 04:52:30;;;;;;;10.10;8.73;;;16.10;99.90;;;;;;5115455;28;20905;-68
2023/06/02 04:54:55;;;;;;;10.27;7.07;;;16.00;99.90;;;;;;5097458;28;20395;-68
2023/06/02 04:57:21;;;;;;;9.37;8.47;;;15.90;99.90;;;;;;5115677;28;20185;-69
2023/06/02 04:59:47;;;;;;;9.40;7.83;;;15.80;99.90;;;;;;5114920;28;20496;-68
2023/06/02 05:02:13;;;;;;;8.60;7.80;;;15.80;99.90;;;;;;5114990;28;20255;-68
2023/06/02 05:04:38;;;;;;;11.43;8.57;;;15.90;99.90;;;;;;5115052;28;20168;-68
2023/06/02 05:07:06;;;;;;;9.03;8.07;;;15.70;99.90;;;;;;5115370;28;20414;-66
2023/06/02 05:09:32;;;;;;;10.83;8.90;;;15.80;99.90;;;;;;5115348;28;20526;-67
2023/06/02 05:11:58;;;;;;;10.47;7.40;;;15.90;99.90;;;;;;5114910;28;20485;-67
2023/06/02 05:14:24;;;;;;;8.93;7.90;;;15.90;99.90;;;;;;5113396;28;20183;-68
2023/06/02 05:16:50;;;;;;;11.43;8.13;;;15.80;99.90;;;;;;5126124;22;20495;-66
2023/06/02 05:19:15;;;;;;;15.10;9.40;;;15.80;99.90;;;;;;5074872;28;20169;-67
2023/06/02 05:21:41;;;;;;;9.03;8.17;;;15.60;99.90;;;;;;5074941;28;20192;-69
2023/06/02 05:24:06;;;;;;;10.10;8.23;;;15.80;99.90;;;;;;5075187;28;20249;-69
2023/06/02 05:26:32;;;;;;;9.80;8.50;;;15.70;99.90;;;;;;5056597;28;20279;-69
2023/06/02 05:28:58;;;;;;;10.73;8.83;;;15.70;99.90;;;;;;5074158;28;20176;-69
2023/06/02 05:31:23;;;;;;;10.67;8.53;;;15.60;99.90;;;;;;5074542;28;20558;-69
2023/06/02 05:33:49;;;;;;;9.93;8.00;;;15.90;99.90;;;;;;5074765;28;20178;-69
2023/06/02 05:36:15;;;;;;;10.13;8.87;;;15.70;99.90;;;;;;5074695;28;20170;-69
2023/06/02 05:38:44;;;;;;;11.70;9.10;;;15.70;99.90;;;;;;5073603;28;20701;-69
2023/06/02 05:41:10;;;;;;;15.33;8.97;;;15.70;99.90;;;;;;5074703;28;20564;-69
2023/06/02 05:43:36;;;;;;;10.13;8.83;;;15.90;99.90;;;;;;5073870;28;20492;-69
2023/06/02 05:46:01;;;;;;;10.37;8.80;;;15.90;99.90;;;;;;5074304;28;20842;-69
2023/06/02 05:48:27;;;;;;;10.07;8.67;;;16.00;99.90;;;;;;5074342;28;20166;-69
2023/06/02 05:50:53;;;;;;;9.97;8.60;;;15.90;99.90;;;;;;5074576;28;20175;-70
2023/06/02 05:53:18;;;;;;;11.40;9.80;;;15.70;99.90;;;;;;5074181;28;20185;-70
2023/06/02 05:55:44;;;;;;;11.60;9.07;;;15.80;99.90;;;;;;5074600;28;20176;-69
2023/06/02 05:58:09;;;;;;;9.43;8.50;;;15.80;99.90;;;;;;5073721;28;20254;-69
2023/06/02 06:00:35;;;;;;;9.87;8.83;;;16.00;99.90;;;;;;5074078;28;20186;-69
2023/06/02 06:03:00;;;;;;;11.60;8.60;;;16.00;99.90;;;;;;5074162;28;20169;-69
2023/06/02 06:05:26;;;;;;;10.30;9.30;;;15.90;99.90;;;;;;5074289;28;20162;-69
2023/06/02 06:07:51;;;;;;;10.90;9.30;;;16.00;99.90;;;;;;5074121;28;20269;-70
2023/06/02 06:10:17;;;;;;;10.90;8.67;;;16.00;99.90;;;;;;5073794;28;20667;-69
2023/06/02 06:12:43;;;;;;;10.40;8.70;;;16.20;99.90;;;;;;5073362;28;20567;-69
2023/06/02 06:15:09;;;;;;;12.40;9.10;;;16.10;99.90;;;;;;5073438;28;20168;-69
2023/06/02 06:17:43;;;;;;;8.80;7.90;;;16.30;99.90;;;;;;5073575;28;20202;-69
2023/06/02 06:20:10;;;;;;;11.20;9.23;;;16.50;99.90;;;;;;5073686;28;20164;-69
2023/06/02 06:22:35;;;;;;;10.67;9.50;;;16.50;99.90;;;;;;5073563;28;20478;-70
2023/06/02 06:25:01;;;;;;;11.10;9.50;;;16.20;99.90;;;;;;5055646;28;20410;-69
2023/06/02 06:27:27;;;;;;;13.33;9.67;;;15.80;99.90;;;;;;5073592;28;20656;-69
2023/06/02 06:29:52;;;;;;;10.17;9.00;;;16.10;99.90;;;;;;5072562;28;20166;-69
2023/06/02 06:32:18;;;;;;;10.50;9.43;;;16.30;99.90;;;;;;5073302;28;20181;-70
2023/06/02 06:34:43;;;;;;;10.97;9.47;;;16.40;99.90;;;;;;5073572;28;20261;-68
2023/06/02 06:37:09;;;;;;;12.13;8.50;;;16.50;99.90;;;;;;5071925;28;20251;-69
2023/06/02 06:39:35;;;;;;;14.40;8.73;;;16.50;99.90;;;;;;5073057;28;20680;-69
2023/06/02 06:42:00;;;;;;;11.20;8.80;;;16.70;99.90;;;;;;5072939;28;20221;-69
2023/06/02 06:44:26;;;;;;;10.30;8.77;;;16.90;99.90;;;;;;5055581;28;20176;-69
2023/06/02 06:46:52;;;;;;;10.30;8.60;;;16.60;99.90;;;;;;5072657;28;20220;-68
2023/06/02 06:49:17;;;;;;;13.17;9.57;;;16.60;99.90;;;;;;5073477;28;20177;-69
2023/06/02 06:51:43;;;;;;;9.47;8.57;;;16.70;99.90;;;;;;5073116;28;20173;-69
2023/06/02 06:54:08;;;;;;;10.50;8.67;;;16.80;99.90;;;;;;5072673;28;20201;-69
2023/06/02 06:56:35;;;;;;;9.23;7.70;;;17.00;99.90;;;;;;5072834;28;20190;-68
2023/06/02 06:59:00;;;;;;;11.90;8.13;;;16.90;99.90;;;;;;5073302;28;20178;-67
2023/06/02 07:01:26;;;;;;;11.53;8.57;;;16.80;99.90;;;;;;5073113;28;20440;-68
2023/06/02 07:03:52;;;;;;;11.43;10.10;;;16.90;99.90;;;;;;5073431;28;20525;-68
2023/06/02 07:06:17;;;;;;;9.60;8.30;;;16.90;99.90;;;;;;5072450;28;20182;-68
2023/06/02 07:08:43;;;;;;;9.40;8.47;;;17.00;99.90;;;;;;5072540;28;20174;-68
2023/06/02 07:11:08;;;;;;;10.67;8.47;;;16.80;99.90;;;;;;5072518;28;20202;-68
2023/06/02 07:13:34;;;;;;;10.33;9.20;;;16.90;99.90;;;;;;5073006;28;20570;-68
2023/06/02 07:15:59;;;;;;;12.77;9.33;;;17.00;99.90;;;;;;5072481;28;20170;-68
2023/06/02 07:18:25;;;;;;;9.93;9.03;;;16.90;99.90;;;;;;5072586;28;20307;-68
2023/06/02 07:20:51;;;;;;;11.57;8.30;;;17.00;99.90;;;;;;5072517;28;20648;-68
2023/06/02 07:23:16;;;;;;;11.70;8.00;;;17.10;99.90;;;;;;5072234;28;20537;-67
2023/06/02 07:25:42;;;;;;;11.43;8.80;;;17.30;99.90;;;;;;5072339;28;20196;-71
2023/06/02 07:28:07;;;;;;;13.57;9.67;;;17.40;99.90;;;;;;5072499;28;20560;-68
2023/06/02 07:30:33;;;;;;;14.17;8.97;;;17.40;99.90;;;;;;5072802;28;20259;-68
2023/06/02 07:32:59;;;;;;;11.20;10.00;;;17.60;99.90;;;;;;5072728;28;20197;-68
2023/06/02 07:35:24;;;;;;;9.60;8.23;;;17.60;99.90;;;;;;5073015;28;20170;-68
2023/06/02 07:37:52;;;;;;;11.63;8.60;;;17.70;99.90;;;;;;5072218;28;20189;-68
2023/06/02 07:40:19;;;;;;;12.80;9.53;;;17.70;99.90;;;;;;5072415;28;20166;-68
2023/06/02 07:42:44;;;;;;;11.23;8.60;;;17.60;99.90;;;;;;5072449;28;20439;-68
2023/06/02 07:45:10;;;;;;;11.40;7.60;;;17.70;99.90;;;;;;5072375;28;20497;-68
2023/06/02 07:47:36;;;;;;;10.00;8.60;;;17.80;99.90;;;;;;5072316;28;20217;-68
2023/06/02 07:50:02;;;;;;;9.80;8.60;;;17.70;99.90;;;;;;5072320;28;20174;-68
2023/06/02 07:52:27;;;;;;;8.70;7.80;;;17.70;99.90;;;;;;5071733;28;20178;-68
2023/06/02 07:54:53;;;;;;;9.07;8.20;;;18.00;99.90;;;;;;5072286;28;20467;-68
2023/06/02 07:57:19;;;;;;;9.70;8.70;;;18.00;99.90;;;;;;5072103;28;20198;-68
2023/06/02 07:59:44;;;;;;;8.83;7.93;;;18.10;99.90;;;;;;5072175;28;20641;-69
2023/06/02 08:02:10;;;;;;;8.73;7.90;;;18.10;99.90;;;;;;5074993;28;20193;-68
2023/06/02 08:04:36;;;;;;;10.53;9.20;;;18.20;99.90;;;;;;5076153;28;20177;-68
2023/06/02 08:07:03;;;;;;;8.03;7.23;;;18.20;99.90;;;;;;5075800;28;20246;-68
2023/06/02 08:09:28;;;;;;;8.60;7.73;;;18.30;99.90;;;;;;5075801;28;20237;-68
2023/06/02 08:11:54;;;;;;;8.83;7.93;;;18.30;99.90;;;;;;5076015;28;20934;-68
2023/06/02 08:14:20;;;;;;;12.47;9.00;;;18.30;99.90;;;;;;5075962;28;20181;-68
2023/06/02 08:16:45;;;;;;;8.73;7.90;;;18.50;99.90;;;;;;5075612;28;20220;-68
2023/06/02 08:19:11;;;;;;;9.70;8.87;;;18.50;99.90;;;;;;5075915;28;20185;-68
2023/06/02 08:21:39;;;;;;;8.80;7.33;;;18.50;99.90;;;;;;5075648;28;20190;-69
2023/06/02 08:24:05;;;;;;;9.47;8.23;;;18.70;99.90;;;;;;5075628;28;20191;-68
2023/06/02 08:26:30;;;;;;;9.90;8.30;;;18.70;99.90;;;;;;5076011;28;20766;-68
2023/06/02 08:28:57;;;;;;;10.20;7.93;;;18.40;99.90;;;;;;5075853;28;20172;-68
2023/06/02 08:31:22;;;;;;;8.37;7.57;;;18.50;99.90;;;;;;5075884;28;20180;-68
2023/06/02 08:33:52;;;;;;;10.50;8.77;;;18.80;99.90;;;;;;5075704;28;20416;-68
2023/06/02 08:36:19;;;;;;;9.97;7.80;;;18.80;99.90;;;;;;5075436;28;20230;-68
2023/06/02 08:38:51;;;;;;;11.87;8.60;;;18.90;99.90;;;;;;5075112;28;20415;-68
2023/06/02 08:41:17;;;;;;;9.33;8.53;;;19.10;99.90;;;;;;5075554;28;20891;-68
2023/06/02 08:43:42;;;;;;;10.20;9.10;;;18.90;99.90;;;;;;5075505;28;20461;-69
2023/06/02 08:46:14;;;;;;;9.60;8.60;;;18.50;99.90;;;;;;5075469;28;20648;-68
2023/06/02 08:48:45;;;;;;;9.30;8.40;;;18.50;99.90;;;;;;5075519;28;20157;-68
2023/06/02 08:51:13;;;;;;;15.33;8.33;;;18.40;99.90;;;;;;5075530;28;20439;-68
2023/06/02 08:53:39;;;;;;;11.80;9.13;;;18.70;99.90;;;;;;5074779;28;20419;-69
2023/06/02 08:56:05;;;;;;;10.80;8.90;;;19.00;99.90;;;;;;5075565;28;20894;-68
2023/06/02 08:58:31;;;;;;;11.63;9.47;;;19.20;99.90;;;;;;5075676;28;20408;-68
2023/06/02 09:00:57;;;;;;;10.27;8.33;;;19.30;99.90;;;;;;5075459;28;20450;-68
2023/06/02 09:03:26;;;;;;;11.67;9.23;;;19.50;99.90;;;;;;5075237;28;20416;-68
2023/06/02 09:05:51;;;;;;;9.77;8.67;;;19.30;99.90;;;;;;5074750;28;20194;-68
2023/06/02 09:08:17;;;;;;;9.30;8.40;;;19.20;99.90;;;;;;5074486;28;20465;-68
2023/06/02 09:10:44;;;;;;;16.20;9.97;;;19.40;99.90;;;;;;5074949;28;20232;-68
2023/06/02 09:13:27;;;;;;;9.00;8.10;;;19.40;99.90;;;;;;5073842;28;20174;-68
2023/06/02 09:16:00;;;;;;;9.73;8.83;;;19.60;99.90;;;;;;5075005;28;20686;-68
2023/06/02 09:18:27;;;;;;;9.83;8.60;;;19.50;99.90;;;;;;5074639;28;20427;-68
2023/06/02 09:20:53;;;;;;;9.57;8.67;;;19.40;99.90;;;;;;5074559;28;20515;-67
2023/06/02 09:23:19;;;;;;;9.60;8.70;;;19.50;99.90;;;;;;5074301;28;20409;-68
2023/06/02 09:25:45;;;;;;;8.93;7.37;;;19.70;99.90;;;;;;5075229;28;20742;-68
2023/06/02 09:28:11;;;;;;;9.27;8.37;;;19.30;99.90;;;;;;5074720;28;20439;-69
2023/06/02 09:30:38;;;;;;;10.07;9.07;;;19.40;99.90;;;;;;5074805;28;20571;-68
2023/06/02 09:33:10;;;;;;;10.63;9.03;;;19.60;99.90;;;;;;5074184;28;20400;-69
2023/06/02 09:35:45;;;;;;;9.03;8.10;;;19.70;99.90;;;;;;5074716;28;20415;-68
2023/06/02 09:38:13;;;;;;;9.30;8.40;;;20.00;99.90;;;;;;5073869;28;20432;-68
2023/06/02 09:40:40;;;;;;;11.50;10.30;;;19.80;99.90;;;;;;5074531;28;20452;-68
2023/06/02 09:43:07;;;;;;;9.50;8.70;;;19.80;99.90;;;;;;5074372;28;20907;-68
2023/06/02 09:45:54;;;;;;;9.20;8.30;;;19.60;99.90;;;;;;5074242;28;20879;-68
2023/06/02 09:48:23;;;;;;;8.80;7.53;;;19.60;99.90;;;;;;5074078;28;20794;-68
2023/06/02 09:50:50;;;;;;;10.40;9.40;;;19.70;99.90;;;;;;5074178;28;20407;-68
2023/06/02 09:53:18;;;;;;;9.80;8.90;;;19.90;99.90;;;;;;5073872;28;20969;-69
2023/06/02 09:55:45;;;;;;;9.33;8.43;;;20.20;99.90;;;;;;5074357;28;20412;-68
2023/06/02 09:58:12;;;;;;;9.53;8.20;;;20.40;99.90;;;;;;5074184;28;20459;-68
2023/06/02 10:00:38;;;;;;;10.07;9.10;;;20.40;99.90;;;;;;5073779;28;20996;-68
2023/06/02 10:03:04;;;;;;;9.33;8.33;;;20.70;99.90;;;;;;5073893;28;20462;-68
2023/06/02 10:05:30;;;;;;;10.37;9.47;;;20.50;99.90;;;;;;5074110;28;20425;-68
2023/06/02 10:08:11;;;;;;;9.57;8.67;;;20.50;99.90;;;;;;5073192;28;20435;-68
2023/06/02 10:11:07;;;;;;;9.77;8.30;;;20.50;99.90;;;;;;5074428;28;20914;-68
2023/06/02 10:13:45;;;;;;;10.27;8.23;;;20.50;99.90;;;;;;5073616;28;20487;-68
2023/06/02 10:16:25;;;;;;;9.53;8.53;;;20.60;99.90;;;;;;5073883;28;20744;-68
2023/06/02 10:18:59;;;;;;;9.37;8.37;;;20.40;99.90;;;;;;5073593;28;20384;-68
2023/06/02 10:21:40;;;;;;;8.50;7.60;;;20.60;99.90;;;;;;5073786;28;20517;-68
2023/06/02 10:24:26;;;;;;;8.87;7.90;;;20.80;99.90;;;;;;5072499;28;20879;-69
2023/06/02 10:27:23;;;;;;;9.40;7.20;;;20.90;99.90;;;;;;5073632;28;20507;-68
2023/06/02 10:29:55;;;;;;;8.60;7.57;;;20.80;99.80;;;;;;5073939;28;20472;-69
2023/06/02 10:32:33;;;;;;;8.17;7.20;;;21.00;99.20;;;;;;5073344;28;20408;-68
2023/06/02 10:35:01;;;;;;;9.10;8.30;;;21.00;98.80;;;;;;5073539;28;20388;-68
2023/06/02 10:37:27;;;;;;;9.00;8.00;;;21.20;98.90;;;;;;5073129;28;20855;-68
2023/06/02 10:39:56;;;;;;;9.83;8.20;;;21.20;98.90;;;;;;5072785;28;20408;-69
2023/06/02 10:42:27;;;;;;;9.50;7.40;;;21.10;99.00;;;;;;5072922;28;20448;-68
2023/06/02 10:45:13;;;;;;;8.53;7.83;;;21.40;98.40;;;;;;5073312;28;20499;-68
2023/06/02 10:47:39;;;;;;;8.17;7.37;;;21.60;97.90;;;;;;5058437;28;20428;-69
2023/06/02 10:50:10;;;;;;;8.80;7.87;;;21.30;98.20;;;;;;5072891;28;20401;-68
2023/06/02 10:52:58;;;;;;;8.50;7.60;;;21.50;97.60;;;;;;5072378;28;20174;-68
2023/06/02 10:55:26;;;;;;;8.10;7.10;;;21.40;97.30;;;;;;5072864;28;20412;-68
2023/06/02 10:58:03;;;;;;;8.63;7.73;;;21.70;97.90;;;;;;5073059;28;20460;-68
2023/06/02 11:00:43;;;;;;;7.23;6.50;;;21.90;96.90;;;;;;5055317;28;20499;-68
2023/06/02 11:03:17;;;;;;;7.73;6.40;;;21.90;96.90;;;;;;5073119;28;20389;-68
2023/06/02 11:05:45;;;;;;;7.27;6.27;;;22.10;95.80;;;;;;5072274;28;20503;-68
2023/06/02 11:08:11;;;;;;;7.30;6.20;;;22.20;96.20;;;;;;5072072;28;20424;-68
2023/06/02 11:10:41;;;;;;;8.90;6.60;;;22.50;95.90;;;;;;5072934;28;20457;-68
2023/06/02 11:13:07;;;;;;;9.07;7.50;;;22.50;94.70;;;;;;5072868;28;20217;-68
2023/06/02 11:15:33;;;;;;;8.50;7.60;;;22.50;95.30;;;;;;5072938;28;20401;-69
2023/06/02 11:18:00;;;;;;;8.10;7.40;;;22.60;94.80;;;;;;5072835;28;20448;-69
2023/06/02 11:20:35;;;;;;;8.33;7.43;;;22.40;95.20;;;;;;5072853;28;20201;-68
2023/06/02 11:23:05;;;;;;;9.30;6.40;;;22.70;95.30;;;;;;5072512;28;20768;-68
2023/06/02 11:25:31;;;;;;;7.57;6.73;;;23.20;94.70;;;;;;5072804;28;20403;-68
2023/06/02 11:27:57;;;;;;;9.20;7.30;;;23.70;93.20;;;;;;5072786;28;20503;-68
2023/06/02 11:30:24;;;;;;;6.37;5.77;;;24.40;92.30;;;;;;5054367;28;20224;-68
2023/06/02 11:32:51;;;;;;;7.13;6.40;;;25.80;89.50;;;;;;5073224;28;20158;-68
2023/06/02 11:35:25;;;;;;;7.07;6.40;;;25.80;87.70;;;;;;5072030;28;20408;-68
2023/06/02 11:38:06;;;;;;;7.30;5.47;;;26.50;85.00;;;;;;5072018;28;20462;-68
2023/06/02 11:40:33;;;;;;;6.90;6.03;;;27.50;80.50;;;;;;5072068;28;20388;-68
2023/06/02 11:42:59;;;;;;;8.07;7.27;;;26.80;80.30;;;;;;5072523;28;20558;-68
2023/06/02 11:45:25;;;;;;;5.87;5.37;;;27.70;77.60;;;;;;5073035;28;20467;-68
2023/06/02 11:48:05;;;;;;;6.33;5.80;;;28.10;74.80;;;;;;5072451;28;20213;-67
2023/06/02 11:50:31;;;;;;;6.27;5.60;;;27.40;75.60;;;;;;5072616;28;20396;-68
2023/06/02 11:52:57;;;;;;;5.17;4.80;;;27.30;75.20;;;;;;5072281;28;20424;-68
2023/06/02 11:55:28;;;;;;;5.30;4.80;;;28.80;71.10;;;;;;5072143;28;20443;-68
2023/06/02 11:58:14;;;;;;;6.10;5.50;;;29.20;68.10;;;;;;5072058;28;20416;-69
2023/06/02 12:00:39;;;;;;;6.10;5.50;;;29.70;65.10;;;;;;5072058;28;20594;-68
2023/06/02 12:03:08;;;;;;;6.13;5.53;;;30.50;62.70;;;;;;5072360;28;20874;-68
2023/06/02 12:05:34;;;;;;;6.33;5.70;;;30.70;62.10;;;;;;5072060;28;20167;-68
2023/06/02 12:08:26;;;;;;;5.57;4.97;;;30.50;60.70;;;;;;5071383;28;20515;-73
2023/06/02 12:10:54;;;;;;;6.40;5.70;;;29.90;61.90;;;;;;5068123;28;20412;-69
2023/06/02 12:13:27;;;;;;;6.50;5.83;;;29.00;63.30;;;;;;5072140;28;20408;-69
2023/06/02 12:15:53;;;;;;;5.53;4.90;;;30.00;61.60;;;;;;5072322;28;20392;-69
2023/06/02 12:18:30;;;;;;;5.90;5.40;;;29.90;61.90;;;;;;5071909;28;20440;-68
2023/06/02 12:20:56;;;;;;;4.97;4.57;;;28.90;63.30;;;;;;5072354;28;20487;-69
2023/06/02 12:23:22;;;;;;;5.63;4.93;;;29.90;62.00;;;;;;5071827;28;20449;-68
2023/06/02 12:25:57;;;;;;;5.00;4.60;;;30.40;59.80;;;;;;5071986;28;20407;-69
2023/06/02 12:28:23;;;;;;;5.20;4.70;;;30.30;60.50;;;;;;5072025;28;20612;-68
2023/06/02 12:30:49;;;;;;;6.00;5.07;;;31.10;59.10;;;;;;5072281;28;20408;-68
2023/06/02 12:33:15;;;;;;;7.90;5.13;;;30.80;59.40;;;;;;5053844;28;20170;-68
2023/06/02 12:35:41;;;;;;;6.00;5.00;;;31.00;57.10;;;;;;5071884;28;20404;-68
2023/06/02 12:38:08;;;;;;;5.47;4.97;;;29.80;58.90;;;;;;5071434;28;20202;-68
2023/06/02 12:40:34;;;;;;;5.10;4.70;;;30.30;57.70;;;;;;5071732;28;20400;-68
2023/06/02 12:43:00;;;;;;;5.00;4.43;;;30.30;56.40;;;;;;5072593;28;20404;-69
2023/06/02 12:45:27;;;;;;;6.13;4.93;;;30.40;56.90;;;;;;5071778;28;20921;-70